Terminal Aerodrome Forecast
Issued by NWS

Home | Current Version | Previous Version | Text Only | Print | Product List | Glossary On
Versions: 1 2 3 4 5 6 7 8 9 10 11 12 13 14 15 16 17 18 19 20 21
000
FTAK31 PANC 202116 AAA
TAFADQ
TAF AMD
PADQ 202116Z 2021/2118 31015G25KT P6SM -SHRA BKN040
     FM210000 35018G28KT P6SM -SHRA SCT025 BKN035
     FM210400 03015G25KT 6SM -RA BR SCT008 BKN015 OVC025
     FM211200 04015KT 6SM -SHRA BKN025=

USA.gov is the U.S. government's official web portal to all federal, state and local government web resources and services.